Time;durP1;ratioP1;P1;durP2;ratioP2;P2;SDS_P1;SDS_P2;PMS_P1;PMS_P2;Temp;Humidity;BMP_temperature;BMP_pressure;BME280_temperature;BME280_humidity;BME280_pressure;Samples;Min_cycle;Max_cycle;Signal;HPM_P1;HPM_P2
2022/01/19 00:00:57;;;;;;;;;;;;;;;13.46;54.60;102459.78;4981654;27;98017;-64
2022/01/19 00:03:23;;;;;;;;;;;;;;;13.47;54.87;102464.16;4983087;27;97766;-58
2022/01/19 00:05:52;;;;;;;;;;;;;;;13.46;54.71;102457.09;4982618;27;117697;-64
2022/01/19 00:08:20;;;;;;;;;;;;;;;13.48;54.70;102446.03;4982426;27;98460;-65
2022/01/19 00:10:46;;;;;;;;;;;;;;;13.48;54.85;102446.84;4981785;27;98578;-64
2022/01/19 00:13:12;;;;;;;;;;;;;;;13.48;54.90;102446.03;4982757;28;98082;-64
2022/01/19 00:15:38;;;;;;;;;;;;;;;13.47;54.68;102434.34;4980297;27;126272;-65
2022/01/19 00:18:04;;;;;;;;;;;;;;;13.47;54.63;102434.34;4981285;28;126585;-65
2022/01/19 00:20:31;;;;;;;;;;;;;;;13.48;54.68;102424.34;4982514;27;98196;-57
2022/01/19 00:22:57;;;;;;;;;;;;;;;13.48;54.71;102422.47;4981372;28;98094;-58
2022/01/19 00:25:23;;;;;;;;;;;;;;;13.49;54.46;102420.56;4983187;27;98950;-62
2022/01/19 00:27:49;;;;;;;;;;;;;;;13.48;54.49;102419.75;4981932;28;98661;-57
2022/01/19 00:30:15;;;;;;;;;;;;;;;13.48;54.92;102410.81;4981270;27;104096;-58
2022/01/19 00:32:41;;;;;;;;;;;;;;;13.48;54.49;102403.50;4980982;28;117778;-64
2022/01/19 00:35:09;;;;;;;;;;;;;;;13.48;54.60;102411.63;4980801;28;111533;-65
2022/01/19 00:37:35;;;;;;;;;;;;;;;13.48;54.91;102410.81;4981880;27;98434;-57
2022/01/19 00:40:01;;;;;;;;;;;;;;;13.49;54.62;102409.75;4981076;28;114146;-65
2022/01/19 00:42:27;;;;;;;;;;;;;;;13.49;54.56;102396.19;4982726;27;97836;-65
2022/01/19 00:44:53;;;;;;;;;;;;;;;13.49;54.94;102390.78;4981584;27;114419;-64
2022/01/19 00:47:19;;;;;;;;;;;;;;;13.49;54.97;102394.31;4980041;27;128308;-64
2022/01/19 00:49:45;;;;;;;;;;;;;;;13.46;54.79;102386.66;4979761;27;122296;-57
2022/01/19 00:52:11;;;;;;;;;;;;;;;13.48;54.80;102387.25;4981903;27;97916;-58
2022/01/19 00:54:38;;;;;;;;;;;;;;;13.51;54.85;102396.75;4979595;27;98745;-58
2022/01/19 00:57:04;;;;;;;;;;;;;;;13.51;54.78;102391.34;4982893;28;98086;-64
2022/01/19 00:59:30;;;;;;;;;;;;;;;13.50;54.96;102389.72;4980240;27;98406;-57
2022/01/19 01:01:56;;;;;;;;;;;;;;;13.50;54.54;102398.66;4980738;27;118186;-65
2022/01/19 01:04:22;;;;;;;;;;;;;;;13.50;54.99;102387.81;4979232;28;115432;-58
2022/01/19 01:06:48;;;;;;;;;;;;;;;13.51;54.51;102384.03;4980603;28;125782;-57
2022/01/19 01:09:13;;;;;;;;;;;;;;;13.51;54.84;102380.50;4980534;28;128359;-57
2022/01/19 01:11:47;;;;;;;;;;;;;;;13.51;54.54;102378.63;4980305;27;115637;-57
2022/01/19 01:16:58;;;;;;;;;;;;;;;13.52;54.64;102374.06;4980950;27;107394;-58
2022/01/19 01:19:24;;;;;;;;;;;;;;;13.51;54.79;102369.66;4980680;27;98173;-57
2022/01/19 01:21:50;;;;;;;;;;;;;;;13.50;54.79;102357.19;4981181;27;97818;-58
2022/01/19 01:24:16;;;;;;;;;;;;;;;13.51;54.61;102365.06;4980756;28;111196;-57
2022/01/19 01:26:42;;;;;;;;;;;;;;;13.50;54.46;102352.59;4978200;27;97909;-64
2022/01/19 01:29:07;;;;;;;;;;;;;;;13.50;54.55;102340.94;4979549;28;127629;-65
2022/01/19 01:31:33;;;;;;;;;;;;;;;13.50;54.60;102341.75;4977581;27;118103;-57
2022/01/19 01:33:59;;;;;;;;;;;;;;;13.50;54.62;102338.22;4980934;28;98415;-64
2022/01/19 01:36:25;;;;;;;;;;;;;;;13.49;54.55;102332.00;4980572;27;102458;-64
2022/01/19 01:38:51;;;;;;;;;;;;;;;13.50;54.88;102335.53;4979507;28;127826;-57
2022/01/19 01:41:17;;;;;;;;;;;;;;;13.49;54.33;102337.41;4980666;27;115471;-65
2022/01/19 01:43:43;;;;;;;;;;;;;;;13.49;54.47;102312.22;4980376;28;128003;-57
2022/01/19 01:46:18;;;;;;;;;;;;;;;13.50;54.77;102308.44;4980777;27;98705;-58
2022/01/19 01:48:46;;;;;;;;;;;;;;;13.49;54.55;102287.84;4981127;27;98074;-57
2022/01/19 01:53:57;;;;;;;;;;;;;;;13.49;54.50;102274.28;4978215;28;98043;-58
2022/01/19 01:56:23;;;;;;;;;;;;;;;13.48;54.73;102269.94;4979321;27;99574;-64
2022/01/19 01:58:49;;;;;;;;;;;;;;;13.48;54.57;102276.19;4980583;28;98576;-64
2022/01/19 02:01:17;;;;;;;;;;;;;;;13.48;54.77;102281.59;4977810;28;118172;-64
2022/01/19 02:03:43;;;;;;;;;;;;;;;13.46;54.61;102281.00;4980247;27;98884;-64
2022/01/19 02:08:56;;;;;;;;;;;;;;;13.45;54.77;102292.91;4977746;27;97912;-64
2022/01/19 02:23:06;;;;;;;;;;;;;;;13.45;54.73;102262.28;4980629;28;97899;-65
2022/01/19 02:25:38;;;;;;;;;;;;;;;13.46;54.44;102255.81;4980725;27;99078;-57
2022/01/19 02:41:38;;;;;;;;;;;;;;;13.46;54.61;102218.69;4982449;28;97888;-65
2022/01/19 02:44:04;;;;;;;;;;;;;;;13.46;54.42;102216.00;4981965;28;97704;-58
2022/01/19 02:49:16;;;;;;;;;;;;;;;13.47;54.37;102206.78;4980532;28;98098;-64
2022/01/19 02:51:46;;;;;;;;;;;;;;;13.46;54.48;102210.56;4983205;27;97841;-57
2022/01/19 02:54:17;;;;;;;;;;;;;;;13.45;54.50;102192.69;4983364;27;111348;-57
2022/01/19 02:56:47;;;;;;;;;;;;;;;13.46;54.48;102186.19;4982763;28;120517;-64
2022/01/19 02:59:19;;;;;;;;;;;;;;;13.47;54.50;102187.81;4983498;28;98654;-65
2022/01/19 03:09:46;;;;;;;;;;;;;;;13.44;54.39;102158.53;4981208;27;98278;-65
2022/01/19 03:12:12;;;;;;;;;;;;;;;13.44;54.40;102157.69;4983170;27;97904;-64
2022/01/19 03:14:38;;;;;;;;;;;;;;;13.42;54.45;102149.84;4982741;28;108456;-65
2022/01/19 03:17:05;;;;;;;;;;;;;;;13.41;54.71;102150.91;4983352;27;98481;-58
2022/01/19 03:19:31;;;;;;;;;;;;;;;13.40;54.59;102141.16;4982185;27;98785;-57
2022/01/19 03:21:57;;;;;;;;;;;;;;;13.39;54.63;102133.25;4983071;28;98624;-58
2022/01/19 03:24:23;;;;;;;;;;;;;;;13.38;54.58;102128.91;4982292;28;98165;-57
2022/01/19 03:26:49;;;;;;;;;;;;;;;13.35;54.77;102113.94;4982582;27;98942;-57
2022/01/19 03:29:15;;;;;;;;;;;;;;;13.34;54.68;102119.63;4982908;27;106287;-58
2022/01/19 03:31:41;;;;;;;;;;;;;;;13.31;54.65;102112.81;4982042;27;119954;-57
2022/01/19 03:34:07;;;;;;;;;;;;;;;13.30;54.48;102111.16;4981754;27;101889;-64
2022/01/19 03:36:34;;;;;;;;;;;;;;;13.28;54.55;102110.59;4981668;28;110261;-64
2022/01/19 03:39:00;;;;;;;;;;;;;;;13.26;54.76;102108.13;4982113;27;98728;-57
2022/01/19 03:41:26;;;;;;;;;;;;;;;13.24;54.48;102104.00;4982343;28;97876;-57
2022/01/19 03:43:52;;;;;;;;;;;;;;;13.22;54.41;102101.53;4982592;27;103387;-57
2022/01/19 03:46:18;;;;;;;;;;;;;;;13.20;54.58;102102.84;4982261;28;99214;-57
2022/01/19 03:48:57;;;;;;;;;;;;;;;13.18;54.51;102104.97;4981794;27;99085;-57
2022/01/19 03:51:24;;;;;;;;;;;;;;;13.16;54.07;102098.97;4982580;27;98332;-64
2022/01/19 03:53:49;;;;;;;;;;;;;;;13.14;54.48;102101.13;4983306;28;97998;-58
2022/01/19 03:56:16;;;;;;;;;;;;;;;13.12;54.62;102103.25;4981656;28;127709;-65
2022/01/19 03:58:42;;;;;;;;;;;;;;;13.10;54.60;102099.97;4982364;27;98278;-64
2022/01/19 04:01:09;;;;;;;;;;;;;;;13.08;54.29;102096.69;4980423;28;100257;-58
2022/01/19 04:06:25;;;;;;;;;;;;;;;13.05;54.29;102094.44;4981931;28;98091;-57
2022/01/19 04:08:51;;;;;;;;;;;;;;;13.02;54.35;102093.06;4982916;27;98328;-58
2022/01/19 04:11:19;;;;;;;;;;;;;;;12.99;54.51;102088.13;4981833;28;123072;-65
2022/01/19 04:16:29;;;;;;;;;;;;;;;12.96;54.33;102088.63;4982307;27;97989;-65
2022/01/19 04:19:08;;;;;;;;;;;;;;;12.94;54.38;102085.34;4980528;28;110675;-57
2022/01/19 04:21:34;;;;;;;;;;;;;;;12.92;54.41;102076.66;4982623;27;97936;-65
2022/01/19 04:24:00;;;;;;;;;;;;;;;12.91;54.30;102078.53;4981748;28;116427;-58
2022/01/19 04:26:26;;;;;;;;;;;;;;;12.91;54.35;102073.13;4981049;27;98127;-58
2022/01/19 04:28:52;;;;;;;;;;;;;;;12.91;54.17;102072.31;4979664;28;129425;-65
2022/01/19 04:31:18;;;;;;;;;;;;;;;12.91;54.25;102062.28;4979866;27;127216;-64
2022/01/19 04:33:45;;;;;;;;;;;;;;;12.92;54.28;102057.69;4982416;28;98035;-65
2022/01/19 04:36:29;;;;;;;;;;;;;;;12.92;54.22;102057.69;4981675;27;97795;-59
2022/01/19 04:39:24;;;;;;;;;;;;;;;12.92;54.26;102052.28;4981862;28;98645;-57
2022/01/19 05:03:11;;;;;;;;;;;;;;;12.88;54.13;101997.00;4978608;28;97853;-58
2022/01/19 05:05:52;;;;;;;;;;;;;;;12.87;53.89;102004.31;4982089;27;97949;-64
2022/01/19 05:13:53;;;;;;;;;;;;;;;12.84;54.04;101996.69;4977642;28;97762;-64
2022/01/19 05:16:20;;;;;;;;;;;;;;;12.82;53.92;101995.31;4982070;27;97804;-57
2022/01/19 05:18:47;;;;;;;;;;;;;;;12.82;53.81;101987.19;4981319;27;99229;-58
2022/01/19 05:21:13;;;;;;;;;;;;;;;12.80;53.83;101973.06;4981127;27;99045;-64
2022/01/19 05:23:39;;;;;;;;;;;;;;;12.78;53.99;101967.91;4981063;27;123772;-64
2022/01/19 05:26:05;;;;;;;;;;;;;;;12.76;53.80;101957.31;4979355;28;117785;-58
2022/01/19 05:28:31;;;;;;;;;;;;;;;12.75;53.88;101952.16;4979799;28;127991;-65
2022/01/19 05:30:57;;;;;;;;;;;;;;;12.73;53.79;101955.13;4979563;27;99266;-64
2022/01/19 05:33:22;;;;;;;;;;;;;;;12.71;54.07;101949.13;4980306;28;118456;-64
2022/01/19 05:35:48;;;;;;;;;;;;;;;12.71;53.76;101934.78;5010357;27;98391;-57
2022/01/19 05:38:14;;;;;;;;;;;;;;;12.68;53.79;101941.50;4974656;28;99394;-57
2022/01/19 05:40:40;;;;;;;;;;;;;;;12.67;53.69;101939.88;4975061;28;126805;-57
2022/01/19 05:43:06;;;;;;;;;;;;;;;12.67;53.87;101941.75;4975193;28;100615;-58
2022/01/19 05:45:32;;;;;;;;;;;;;;;12.64;53.73;101932.22;4976887;28;97877;-57
2022/01/19 05:47:58;;;;;;;;;;;;;;;12.62;53.68;101926.25;4976514;28;98177;-57
2022/01/19 05:50:24;;;;;;;;;;;;;;;12.62;53.74;101920.03;4975004;27;121081;-57
2022/01/19 05:52:51;;;;;;;;;;;;;;;12.60;53.84;101928.38;4976177;28;98841;-57
2022/01/19 05:55:16;;;;;;;;;;;;;;;12.60;53.78;101928.38;4975887;27;97961;-57
2022/01/19 05:57:42;;;;;;;;;;;;;;;12.59;53.82;101925.94;4974818;28;126222;-57
2022/01/19 06:00:09;;;;;;;;;;;;;;;12.59;53.55;101920.53;4976733;28;100162;-57
2022/01/19 06:02:36;;;;;;;;;;;;;;;12.57;53.69;101917.22;4975871;27;98363;-58
2022/01/19 06:05:02;;;;;;;;;;;;;;;12.56;53.54;101921.00;4979747;27;97983;-57
2022/01/19 06:07:30;;;;;;;;;;;;;;;12.55;53.74;101919.38;4977646;27;118068;-57
2022/01/19 06:10:05;;;;;;;;;;;;;;;12.53;53.68;101912.31;4978840;27;99388;-57
2022/01/19 06:12:31;;;;;;;;;;;;;;;12.52;53.52;101899.03;4978377;27;97734;-57
2022/01/19 06:14:58;;;;;;;;;;;;;;;12.50;53.29;101904.69;4979604;28;97961;-57
2022/01/19 06:17:24;;;;;;;;;;;;;;;12.48;53.70;101901.41;4979577;27;98459;-57
2022/01/19 06:19:50;;;;;;;;;;;;;;;12.48;53.55;101895.19;4979036;28;127597;-58
2022/01/19 06:22:17;;;;;;;;;;;;;;;12.47;53.57;101890.84;4979476;28;104623;-57
2022/01/19 06:24:43;;;;;;;;;;;;;;;12.44;53.58;101888.63;4978421;27;97870;-57
2022/01/19 06:27:09;;;;;;;;;;;;;;;12.43;53.37;101878.88;4978138;28;122643;-57
2022/01/19 06:29:35;;;;;;;;;;;;;;;12.40;53.53;101884.78;4978515;27;117619;-57
2022/01/19 06:32:01;;;;;;;;;;;;;;;12.40;53.53;101880.19;4974831;28;128918;-57
2022/01/19 06:34:27;;;;;;;;;;;;;;;12.39;53.21;101877.72;4982166;28;104940;-57
2022/01/19 06:36:53;;;;;;;;;;;;;;;12.36;53.46;101876.31;4976738;28;109728;-57
2022/01/19 06:39:19;;;;;;;;;;;;;;;12.37;53.46;101871.72;4978595;27;103478;-57
2022/01/19 06:41:46;;;;;;;;;;;;;;;12.34;53.41;101858.69;4978348;27;107657;-57
2022/01/19 06:44:13;;;;;;;;;;;;;;;12.36;53.56;101864.69;4978994;27;100357;-57
2022/01/19 06:46:40;;;;;;;;;;;;;;;12.34;53.37;101856.84;4978317;27;97780;-57
2022/01/19 06:49:06;;;;;;;;;;;;;;;12.33;53.10;101848.97;4978589;28;121873;-56
2022/01/19 06:51:32;;;;;;;;;;;;;;;12.33;53.39;101843.56;4977068;28;128478;-57
2022/01/19 06:53:58;;;;;;;;;;;;;;;12.32;53.27;101841.91;4978465;28;117162;-57
2022/01/19 06:56:24;;;;;;;;;;;;;;;12.32;53.13;101855.44;4978620;28;99082;-57
2022/01/19 06:58:50;;;;;;;;;;;;;;;12.30;53.21;101853.00;4978544;27;98755;-57
2022/01/19 07:01:16;;;;;;;;;;;;;;;12.29;53.41;101848.63;4977915;28;110900;-57
2022/01/19 07:03:42;;;;;;;;;;;;;;;12.28;53.08;101850.50;4978138;27;116438;-57
2022/01/19 07:06:11;;;;;;;;;;;;;;;12.28;53.14;101839.69;4978714;28;104339;-57
2022/01/19 07:08:38;;;;;;;;;;;;;;;12.27;53.17;101840.78;4979225;27;99357;-64
2022/01/19 07:11:04;;;;;;;;;;;;;;;12.28;53.01;101828.88;4979581;27;98107;-64
2022/01/19 07:13:30;;;;;;;;;;;;;;;12.29;53.16;101824.28;4979062;27;106547;-57
2022/01/19 07:15:56;;;;;;;;;;;;;;;12.28;53.06;101822.66;4978978;27;128461;-63
2022/01/19 07:18:22;;;;;;;;;;;;;;;12.29;52.81;101811.59;4979684;27;128415;-64
2022/01/19 07:20:48;;;;;;;;;;;;;;;12.30;52.86;101812.44;4982482;27;97926;-64
2022/01/19 07:23:13;;;;;;;;;;;;;;;12.28;52.96;101809.97;4981604;28;118419;-57
2022/01/19 07:25:39;;;;;;;;;;;;;;;12.30;52.90;101804.31;4983103;28;98958;-65
2022/01/19 07:28:08;;;;;;;;;;;;;;;12.30;52.81;101782.69;4981378;28;128719;-56
2022/01/19 07:30:34;;;;;;;;;;;;;;;12.31;52.83;101787.03;4982149;27;98915;-57
2022/01/19 07:33:00;;;;;;;;;;;;;;;12.32;53.03;101783.25;4982143;27;97779;-57
2022/01/19 07:35:26;;;;;;;;;;;;;;;12.33;52.97;101776.78;4981168;27;118049;-64
2022/01/19 07:37:52;;;;;;;;;;;;;;;12.35;52.88;101782.75;4981998;28;116665;-57
2022/01/19 07:40:18;;;;;;;;;;;;;;;12.39;52.83;101788.50;4982218;28;98296;-64
2022/01/19 07:42:44;;;;;;;;;;;;;;;12.41;52.95;101772.84;4982498;27;110272;-64
2022/01/19 07:45:10;;;;;;;;;;;;;;;12.42;52.74;101759.09;4982413;28;107556;-64
2022/01/19 07:47:36;;;;;;;;;;;;;;;12.45;52.65;101758.56;4980933;28;124691;-64
2022/01/19 07:50:03;;;;;;;;;;;;;;;12.52;52.54;101759.22;4981917;27;98748;-64
2022/01/19 07:52:29;;;;;;;;;;;;;;;12.57;52.70;101749.53;4981404;27;105834;-64
2022/01/19 07:54:55;;;;;;;;;;;;;;;12.63;52.38;101743.13;4980834;27;128398;-63
2022/01/19 07:57:21;;;;;;;;;;;;;;;12.68;52.35;101729.66;4980671;28;127319;-64
2022/01/19 07:59:47;;;;;;;;;;;;;;;12.77;52.32;101728.16;4981030;27;97959;-63
2022/01/19 08:02:13;;;;;;;;;;;;;;;12.91;52.15;101724.00;4982194;27;116899;-64
2022/01/19 08:04:39;;;;;;;;;;;;;;;13.09;51.97;101724.75;4982238;28;98537;-64
2022/01/19 08:07:05;;;;;;;;;;;;;;;13.30;51.86;101715.00;4982502;27;98568;-64
2022/01/19 08:09:31;;;;;;;;;;;;;;;13.55;51.29;101712.53;4980039;28;125136;-65
2022/01/19 08:11:57;;;;;;;;;;;;;;;13.89;50.97;101709.56;4982793;27;97937;-64
2022/01/19 08:14:24;;;;;;;;;;;;;;;14.19;50.70;101704.38;4961061;28;121225;-63
2022/01/19 08:16:51;;;;;;;;;;;;;;;14.47;50.54;101694.22;4971731;28;98997;-65
2022/01/19 08:19:17;;;;;;;;;;;;;;;14.79;49.94;101693.28;4981605;27;115942;-64
2022/01/19 08:21:43;;;;;;;;;;;;;;;15.21;49.93;101695.88;4981052;27;105964;-64
2022/01/19 08:24:09;;;;;;;;;;;;;;;15.68;49.31;101690.25;4981299;28;126860;-64
2022/01/19 08:26:35;;;;;;;;;;;;;;;16.13;48.37;101685.03;4981610;27;127756;-64
2022/01/19 08:29:01;;;;;;;;;;;;;;;16.50;48.35;101684.63;4982026;27;98055;-62
2022/01/19 08:31:27;;;;;;;;;;;;;;;16.84;48.08;101684.00;4980753;28;117580;-64
2022/01/19 08:33:53;;;;;;;;;;;;;;;17.21;47.83;101685.41;4980190;28;128102;-65
2022/01/19 08:36:21;;;;;;;;;;;;;;;17.54;47.79;101681.91;4981034;28;127592;-64
2022/01/19 08:38:47;;;;;;;;;;;;;;;18.02;47.28;101692.97;4981518;27;98224;-64
2022/01/19 08:41:13;;;;;;;;;;;;;;;18.67;46.63;101680.75;4982897;28;97956;-64
2022/01/19 08:43:39;;;;;;;;;;;;;;;19.48;45.60;101678.81;4980673;28;125035;-57
2022/01/19 08:46:04;;;;;;;;;;;;;;;20.41;44.49;101673.34;4980742;28;125468;-57
2022/01/19 08:48:30;;;;;;;;;;;;;;;21.28;43.29;101675.03;4980439;28;127654;-64
2022/01/19 08:50:56;;;;;;;;;;;;;;;22.03;42.37;101674.25;4979953;27;98096;-64
2022/01/19 08:53:22;;;;;;;;;;;;;;;22.55;41.95;101671.72;4981778;28;98804;-65
2022/01/19 08:55:49;;;;;;;;;;;;;;;22.92;41.66;101672.31;4980299;28;127266;-65
2022/01/19 08:58:14;;;;;;;;;;;;;;;23.12;41.63;101675.56;4978784;28;120493;-57
2022/01/19 09:00:42;;;;;;;;;;;;;;;23.14;42.21;101676.84;4981566;27;114178;-57
2022/01/19 09:03:08;;;;;;;;;;;;;;;22.96;42.82;101681.53;4981440;27;98784;-65
2022/01/19 09:05:34;;;;;;;;;;;;;;;22.67;43.49;101675.78;4979851;28;128211;-57
2022/01/19 09:08:00;;;;;;;;;;;;;;;22.54;44.10;101675.59;4980760;27;125643;-65
2022/01/19 09:10:26;;;;;;;;;;;;;;;22.57;44.42;101674.16;4962802;28;97847;-65
2022/01/19 09:12:52;;;;;;;;;;;;;;;22.71;44.29;101668.50;4978707;28;98723;-65
2022/01/19 09:15:18;;;;;;;;;;;;;;;22.64;44.72;101669.00;4980022;27;122586;-64
2022/01/19 09:17:44;;;;;;;;;;;;;;;22.43;45.04;101665.22;4979590;28;97842;-58
2022/01/19 09:20:11;;;;;;;;;;;;;;;22.17;45.54;101654.97;4981523;27;98051;-65
2022/01/19 09:22:37;;;;;;;;;;;;;;;22.02;46.12;101652.63;4978248;27;98594;-64
2022/01/19 09:25:04;;;;;;;;;;;;;;;21.95;46.33;101650.31;4977715;28;128339;-57
2022/01/19 09:27:30;;;;;;;;;;;;;;;21.90;46.64;101644.16;4980537;27;99315;-64
2022/01/19 09:29:56;;;;;;;;;;;;;;;21.87;46.59;101636.56;4981536;28;106871;-65
2022/01/19 09:32:22;;;;;;;;;;;;;;;21.86;46.85;101635.75;4979313;28;129218;-57
2022/01/19 09:34:54;;;;;;;;;;;;;;;21.85;46.96;101625.06;4980319;28;98400;-65
2022/01/19 09:37:20;;;;;;;;;;;;;;;21.85;46.93;101633.31;4981499;28;98416;-64
2022/01/19 09:39:46;;;;;;;;;;;;;;;21.76;47.19;101625.84;4980306;28;104815;-57
2022/01/19 09:42:12;;;;;;;;;;;;;;;21.73;47.25;101617.44;4980783;28;103866;-57
2022/01/19 09:44:39;;;;;;;;;;;;;;;21.65;47.48;101616.25;4980902;28;98404;-57
2022/01/19 09:47:06;;;;;;;;;;;;;;;21.58;47.53;101618.66;4980625;28;97705;-61
2022/01/19 09:49:31;;;;;;;;;;;;;;;21.49;47.89;101609.56;4981358;27;98252;-65
2022/01/19 09:51:57;;;;;;;;;;;;;;;21.38;48.09;101617.25;4978356;28;127993;-58
2022/01/19 09:54:29;;;;;;;;;;;;;;;21.27;48.22;101611.16;4980314;27;98744;-57
2022/01/19 09:56:55;;;;;;;;;;;;;;;21.13;48.39;101615.09;4981010;27;98454;-57
2022/01/19 09:59:22;;;;;;;;;;;;;;;21.06;48.60;101612.78;4980645;28;111065;-65
2022/01/19 10:01:58;;;;;;;;;;;;;;;20.98;48.55;101614.31;4980826;27;99545;-65
2022/01/19 10:04:26;;;;;;;;;;;;;;;20.97;48.56;101614.63;4981374;28;98402;-57
2022/01/19 10:07:15;;;;;;;;;;;;;;;20.88;48.66;101605.53;4980935;27;97842;-57
2022/01/19 10:09:53;;;;;;;;;;;;;;;20.78;48.80;101606.56;4980647;28;98087;-57
2022/01/19 10:18:33;;;;;;;;;;;;;;;20.34;49.17;101573.25;4977257;27;98043;-57
2022/01/19 10:21:13;;;;;;;;;;;;;;;20.15;49.50;101563.56;4980141;27;99186;-58
2022/01/19 10:23:46;;;;;;;;;;;;;;;19.97;49.54;101559.81;4974837;28;98219;-65
2022/01/19 10:26:13;;;;;;;;;;;;;;;19.82;49.75;101547.25;4960712;28;98291;-57
2022/01/19 10:29:03;;;;;;;;;;;;;;;19.66;49.76;101544.00;4959751;28;97848;-65
2022/01/19 10:31:30;;;;;;;;;;;;;;;19.56;49.91;101549.63;4974478;28;97929;-57
2022/01/19 10:34:13;;;;;;;;;;;;;;;19.40;50.01;101542.81;4979417;28;122135;-57
2022/01/19 10:37:01;;;;;;;;;;;;;;;19.19;50.13;101542.38;4981260;27;98486;-57
2022/01/19 10:39:39;;;;;;;;;;;;;;;18.93;50.40;101533.78;4977622;28;97933;-57
2022/01/19 10:42:10;;;;;;;;;;;;;;;18.70;50.73;101532.72;4979097;28;97868;-64
2022/01/19 10:44:37;;;;;;;;;;;;;;;18.48;50.92;101530.59;4979635;27;102042;-57
2022/01/19 10:47:04;;;;;;;;;;;;;;;18.28;50.96;101527.06;4979522;27;98841;-57
2022/01/19 10:49:49;;;;;;;;;;;;;;;18.09;51.12;101521.56;4979794;27;98613;-57
2022/01/19 10:52:52;;;;;;;;;;;;;;;17.94;51.15;101516.28;4981115;27;98036;-57
2022/01/19 10:55:24;;;;;;;;;;;;;;;17.79;51.13;101500.91;4982101;27;112444;-57
2022/01/19 10:57:53;;;;;;;;;;;;;;;17.66;50.99;101498.88;4983491;27;98633;-57
2022/01/19 11:00:33;;;;;;;;;;;;;;;17.64;51.00;101491.00;4982820;27;98377;-57
2022/01/19 11:03:19;;;;;;;;;;;;;;;17.60;51.04;101494.56;4983102;27;97938;-57
2022/01/19 11:05:47;;;;;;;;;;;;;;;17.49;51.17;101495.78;4982700;27;98724;-57
2022/01/19 11:08:13;;;;;;;;;;;;;;;17.37;51.25;101491.56;4969129;28;98486;-57
2022/01/19 11:10:39;;;;;;;;;;;;;;;17.33;51.02;101482.34;4984264;27;97671;-57
2022/01/19 11:13:13;;;;;;;;;;;;;;;17.23;51.12;101476.97;4983354;28;97639;-57
2022/01/19 11:15:39;;;;;;;;;;;;;;;17.16;51.32;101471.03;4982900;27;98419;-57
2022/01/19 11:18:05;;;;;;;;;;;;;;;17.08;51.23;101458.84;4981155;27;119915;-57
2022/01/19 11:20:31;;;;;;;;;;;;;;;17.04;51.23;101457.00;4981520;28;127023;-57
2022/01/19 11:22:59;;;;;;;;;;;;;;;16.95;51.40;101453.28;4960659;28;98319;-57
2022/01/19 11:25:50;;;;;;;;;;;;;;;16.85;51.42;101454.16;4963901;28;122340;-57
2022/01/19 11:28:36;;;;;;;;;;;;;;;16.76;51.15;101453.97;4966574;28;98861;-57
2022/01/19 11:31:22;;;;;;;;;;;;;;;16.66;51.54;101454.00;4981812;28;105917;-57
2022/01/19 11:33:56;;;;;;;;;;;;;;;16.56;51.47;101459.56;4973195;27;98215;-57
2022/01/19 11:36:24;;;;;;;;;;;;;;;16.48;51.67;101460.16;4969719;28;98509;-64
2022/01/19 11:38:51;;;;;;;;;;;;;;;16.41;51.51;101436.78;4982077;27;98353;-57
2022/01/19 11:41:17;;;;;;;;;;;;;;;16.35;51.48;101437.94;4983326;27;118016;-58
2022/01/19 11:43:54;;;;;;;;;;;;;;;16.30;51.58;101435.22;4983117;27;97746;-57
2022/01/19 11:46:28;;;;;;;;;;;;;;;16.28;51.53;101423.81;4980993;28;99058;-57
2022/01/19 11:48:54;;;;;;;;;;;;;;;16.29;51.38;101425.44;4982987;28;98831;-65
2022/01/19 11:51:34;;;;;;;;;;;;;;;16.28;51.40;101412.94;4982486;27;110042;-57
2022/01/19 11:54:06;;;;;;;;;;;;;;;16.28;51.17;101395.81;4982199;28;97885;-64
2022/01/19 11:56:33;;;;;;;;;;;;;;;16.23;51.41;101393.94;4982706;28;98528;-64
2022/01/19 11:59:09;;;;;;;;;;;;;;;16.23;51.43;101388.50;4982826;28;98494;-64
2022/01/19 12:01:35;;;;;;;;;;;;;;;16.26;51.42;101377.03;4981364;27;98001;-64
2022/01/19 12:04:20;;;;;;;;;;;;;;;16.25;51.27;101375.41;4982116;27;98644;-64
2022/01/19 12:06:47;;;;;;;;;;;;;;;16.22;51.44;101367.81;4982045;28;100452;-57
2022/01/19 12:09:13;;;;;;;;;;;;;;;16.20;51.55;101345.56;4983370;27;98551;-65
2022/01/19 12:11:49;;;;;;;;;;;;;;;16.22;51.50;101342.53;4980466;28;98158;-57
2022/01/19 12:14:21;;;;;;;;;;;;;;;16.25;51.36;101326.47;4982738;27;97831;-65
2022/01/19 12:17:06;;;;;;;;;;;;;;;16.33;51.25;101316.88;4981226;28;98803;-64
2022/01/19 12:19:40;;;;;;;;;;;;;;;16.34;51.37;101315.78;4981919;27;98459;-64
2022/01/19 12:22:20;;;;;;;;;;;;;;;16.36;51.33;101308.16;4981864;27;97898;-57
2022/01/19 12:24:56;;;;;;;;;;;;;;;16.37;51.42;101296.97;4982100;27;97695;-64
2022/01/19 12:27:29;;;;;;;;;;;;;;;16.45;51.25;101274.59;4981142;28;98787;-65
2022/01/19 12:30:06;;;;;;;;;;;;;;;16.44;51.26;101267.53;4982732;27;98622;-57
2022/01/19 12:32:37;;;;;;;;;;;;;;;16.45;51.43;101260.16;4981331;27;98459;-64
2022/01/19 12:35:07;;;;;;;;;;;;;;;16.39;51.48;101248.53;4981554;27;104305;-65
2022/01/19 12:37:37;;;;;;;;;;;;;;;16.28;51.77;101238.84;4982092;28;98954;-64
2022/01/19 12:40:18;;;;;;;;;;;;;;;16.16;51.72;101228.34;4982546;27;98612;-57
2022/01/19 12:42:48;;;;;;;;;;;;;;;16.08;52.20;101233.59;4982053;27;97953;-57
2022/01/19 12:45:48;;;;;;;;;;;;;;;15.99;52.13;101225.22;4982040;27;98280;-57
2022/01/19 12:48:14;;;;;;;;;;;;;;;15.88;52.22;101210.94;4981829;27;98256;-58
2022/01/19 12:50:42;;;;;;;;;;;;;;;15.81;52.39;101207.72;4981971;27;98564;-57
2022/01/19 12:53:16;;;;;;;;;;;;;;;15.76;52.58;101210.50;4981383;28;98441;-57
2022/01/19 12:55:46;;;;;;;;;;;;;;;15.70;52.52;101211.63;4981426;28;97943;-64
2022/01/19 12:58:25;;;;;;;;;;;;;;;15.65;52.58;101201.59;4972018;28;98803;-57
2022/01/19 13:00:54;;;;;;;;;;;;;;;15.63;52.50;101190.16;4980302;27;99071;-65
2022/01/19 13:03:31;;;;;;;;;;;;;;;15.66;52.56;101175.22;4982127;27;97923;-64
2022/01/19 13:06:02;;;;;;;;;;;;;;;15.70;52.51;101170.84;4962591;28;97911;-64
2022/01/19 13:08:36;;;;;;;;;;;;;;;15.73;52.66;101158.59;4961633;28;99061;-64
2022/01/19 13:11:17;;;;;;;;;;;;;;;15.75;52.25;101162.63;4964628;28;98355;-57
2022/01/19 13:13:49;;;;;;;;;;;;;;;15.76;52.26;101152.56;4980987;27;98779;-57
2022/01/19 13:16:32;;;;;;;;;;;;;;;15.76;52.31;101161.56;4981026;27;98370;-64
2022/01/19 13:19:07;;;;;;;;;;;;;;;15.75;52.30;101159.13;4979643;28;98912;-56
2022/01/19 13:21:33;;;;;;;;;;;;;;;15.75;52.19;101153.69;4980811;27;99194;-57
2022/01/19 13:24:13;;;;;;;;;;;;;;;15.73;52.42;101148.53;4981164;27;98118;-56
2022/01/19 13:26:50;;;;;;;;;;;;;;;15.72;52.38;101144.22;4982045;27;98279;-64
2022/01/19 13:29:39;;;;;;;;;;;;;;;15.68;52.55;101137.72;4981284;27;98333;-64
2022/01/19 13:32:13;;;;;;;;;;;;;;;15.68;52.21;101133.09;4981325;28;98164;-57
2022/01/19 13:34:56;;;;;;;;;;;;;;;15.66;52.32;101120.88;4980398;27;98285;-56
2022/01/19 13:37:30;;;;;;;;;;;;;;;15.65;52.55;101113.84;4981089;27;98192;-57
2022/01/19 13:40:02;;;;;;;;;;;;;;;15.62;52.57;101106.22;4978775;27;98961;-57
2022/01/19 13:42:37;;;;;;;;;;;;;;;15.59;52.63;101099.44;4981550;27;98393;-56
2022/01/19 13:45:14;;;;;;;;;;;;;;;15.55;52.52;101095.66;4981504;28;98545;-65
2022/01/19 13:47:55;;;;;;;;;;;;;;;15.54;52.64;101096.75;4981473;28;98283;-65
2022/01/19 13:50:23;;;;;;;;;;;;;;;15.51;52.64;101094.63;4981765;27;99242;-56
2022/01/19 13:52:49;;;;;;;;;;;;;;;15.48;52.74;101092.47;4979605;28;98482;-58
2022/01/19 13:55:19;;;;;;;;;;;;;;;15.46;52.86;101086.53;4981389;28;98358;-61
2022/01/19 13:57:45;;;;;;;;;;;;;;;15.43;52.84;101090.59;4981723;28;97942;-64
2022/01/19 14:00:13;;;;;;;;;;;;;;;15.41;52.61;101076.50;4980457;28;128091;-65
2022/01/19 14:02:39;;;;;;;;;;;;;;;15.39;52.43;101067.00;4979099;27;118226;-57
2022/01/19 14:05:05;;;;;;;;;;;;;;;15.37;52.71;101059.16;4978776;28;128546;-57